createdAt,value
2022-11-30T00:01:37.409Z,21.55
2022-11-30T00:06:43.025Z,21.38
2022-11-30T00:11:46.527Z,22.13
2022-11-30T00:16:49.879Z,20.98
2022-11-30T00:21:53.294Z,21.38
2022-11-30T00:26:56.942Z,21.27
2022-11-30T00:37:04.413Z,19.42
2022-11-30T00:42:07.800Z,21.30
2022-11-30T00:47:11.120Z,18.48
2022-11-30T01:02:21.910Z,19.92
2022-11-30T01:07:26.124Z,17.95
2022-11-30T01:22:36.193Z,18.65
2022-11-30T01:27:41.790Z,18.40
2022-11-30T01:32:45.299Z,16.25
2022-11-30T01:37:48.942Z,16.77
2022-11-30T01:42:52.468Z,17.75
2022-11-30T01:47:57.876Z,16.73
2022-11-30T01:53:03.268Z,17.75
2022-11-30T01:58:16.885Z,17.70
2022-11-30T02:03:21.411Z,17.17
2022-11-30T02:08:26.680Z,17.60
2022-11-30T02:13:30.963Z,16.73
2022-11-30T02:24:09.440Z,15.63
2022-11-30T02:29:25.103Z,16.80
2022-11-30T02:34:33.132Z,17.67
2022-11-30T02:39:36.541Z,18.83
2022-11-30T02:44:47.809Z,16.90
2022-11-30T02:49:55.272Z,17.27
2022-11-30T02:55:11.251Z,17.60
2022-11-30T03:00:21.444Z,18.17
2022-11-30T03:05:25.239Z,17.73
2022-11-30T03:10:30.327Z,17.45
2022-11-30T03:15:34.185Z,18.02
2022-11-30T03:20:41.955Z,18.85
2022-11-30T03:25:45.427Z,17.73
2022-11-30T03:30:51.932Z,16.73
2022-11-30T03:36:07.856Z,16.73
2022-11-30T03:41:14.927Z,16.45
2022-11-30T03:46:23.211Z,15.68
2022-11-30T03:51:26.739Z,15.57
2022-11-30T03:56:30.408Z,14.95
2022-11-30T04:01:35.059Z,15.80
2022-11-30T04:06:43.341Z,16.33
2022-11-30T04:11:46.610Z,14.82
2022-11-30T04:16:50.306Z,14.95
2022-11-30T04:21:55.031Z,16.02
2022-11-30T04:26:58.294Z,16.30
2022-11-30T04:32:03.230Z,16.13
2022-11-30T04:42:10.330Z,15.65
2022-11-30T04:52:17.325Z,16.25
2022-11-30T04:57:20.623Z,15.90
2022-11-30T05:12:31.421Z,15.43
2022-11-30T05:17:35.035Z,16.92
2022-11-30T05:22:38.485Z,16.45
2022-11-30T05:27:41.831Z,16.50
2022-11-30T05:32:45.361Z,15.15
2022-11-30T05:37:48.751Z,15.10
2022-11-30T05:42:57.081Z,14.57
2022-11-30T05:48:00.530Z,13.45
2022-11-30T05:53:05.297Z,13.52
2022-11-30T05:58:08.640Z,14.25
2022-11-30T06:03:12.500Z,11.57
2022-11-30T06:08:15.792Z,10.93
2022-11-30T06:13:19.225Z,12.38
2022-11-30T06:18:22.654Z,9.70
2022-11-30T06:23:25.914Z,10.45
2022-11-30T06:28:30.559Z,10.07
2022-11-30T06:33:35.712Z,10.48
2022-11-30T06:38:39.247Z,9.30
2022-11-30T06:43:43.092Z,9.65
2022-11-30T06:48:49.245Z,9.07
2022-11-30T06:53:53.237Z,9.35
2022-11-30T06:58:56.793Z,8.10
2022-11-30T07:04:00.404Z,8.00
2022-11-30T07:09:03.735Z,8.82
2022-11-30T07:14:07.234Z,8.05
2022-11-30T07:19:10.696Z,7.55
2022-11-30T07:24:14.893Z,7.28
2022-11-30T07:29:18.561Z,6.20
2022-11-30T07:34:22.238Z,6.18
2022-11-30T07:39:25.840Z,5.82
2022-11-30T07:44:29.253Z,5.78
2022-11-30T07:49:32.609Z,5.45
2022-11-30T07:54:36.005Z,5.25
2022-11-30T07:59:39.351Z,5.30
2022-11-30T08:04:42.640Z,5.95
2022-11-30T08:09:46.173Z,5.88
2022-11-30T08:15:18.685Z,5.40
2022-11-30T08:20:13.527Z,5.25
2022-11-30T08:25:17.039Z,5.28
2022-11-30T08:30:20.448Z,5.53
2022-11-30T08:35:23.917Z,5.97
2022-11-30T08:40:27.274Z,4.38
2022-11-30T08:45:30.846Z,5.93
2022-11-30T08:50:34.157Z,5.95
2022-11-30T08:55:37.608Z,6.82
2022-11-30T09:00:40.977Z,6.20
2022-11-30T09:05:44.516Z,7.25
2022-11-30T09:10:50.345Z,7.45
2022-11-30T09:15:57.335Z,8.07
2022-11-30T09:21:02.875Z,8.10
2022-11-30T09:26:08.963Z,9.10
2022-11-30T09:31:15.352Z,10.48
2022-11-30T09:36:22.683Z,9.70
2022-11-30T09:41:35.087Z,8.20
2022-11-30T09:46:54.827Z,6.72
2022-11-30T09:52:04.790Z,6.50
2022-11-30T09:57:14.303Z,5.32
2022-11-30T10:02:18.909Z,6.38
2022-11-30T10:07:37.449Z,7.20
2022-11-30T10:13:12.799Z,6.30
2022-11-30T10:18:38.189Z,4.10
2022-11-30T10:24:21.236Z,3.50
2022-11-30T10:29:37.985Z,3.83
2022-11-30T10:34:43.479Z,3.90
2022-11-30T10:39:55.619Z,3.60
2022-11-30T10:45:15.783Z,2.60
2022-11-30T10:50:20.925Z,2.17
2022-11-30T10:55:35.052Z,1.80
2022-11-30T11:00:40.338Z,1.83
2022-11-30T11:05:43.576Z,1.77
2022-11-30T11:10:49.669Z,2.83
2022-11-30T11:16:01.074Z,2.08
2022-11-30T11:21:18.944Z,2.15
2022-11-30T11:26:26.872Z,2.00
2022-11-30T11:32:05.641Z,1.35
2022-11-30T11:37:33.251Z,2.92
2022-11-30T11:42:42.261Z,2.05
2022-11-30T11:47:46.575Z,1.50
2022-11-30T11:52:50.657Z,2.50
2022-11-30T11:57:58.507Z,1.60
2022-11-30T12:03:46.192Z,7.20
2022-11-30T12:09:22.233Z,1.40
2022-11-30T12:14:26.568Z,2.03
2022-11-30T12:19:51.972Z,1.30
2022-11-30T12:25:25.019Z,1.45
2022-11-30T12:30:46.828Z,1.45
2022-11-30T12:36:22.148Z,2.13
2022-11-30T12:41:37.513Z,1.48
2022-11-30T12:47:01.959Z,1.50
2022-11-30T12:52:36.349Z,1.35
2022-11-30T12:58:04.139Z,1.30
2022-11-30T13:03:10.394Z,1.35
2022-11-30T13:08:32.110Z,2.05
2022-11-30T13:13:37.349Z,1.40
2022-11-30T13:18:43.043Z,1.50
2022-11-30T13:23:55.729Z,1.50
2022-11-30T13:29:17.036Z,1.58
2022-11-30T13:34:29.468Z,1.52
2022-11-30T13:39:54.581Z,1.45
2022-11-30T13:45:15.947Z,1.33
2022-11-30T13:50:39.927Z,1.52
2022-11-30T13:55:43.204Z,1.67
2022-11-30T14:01:26.494Z,1.73
2022-11-30T14:06:41.806Z,1.92
2022-11-30T14:11:46.565Z,2.10
2022-11-30T14:16:50.253Z,1.50
2022-11-30T14:21:55.078Z,1.55
2022-11-30T14:26:58.935Z,1.60
2022-11-30T14:32:13.676Z,1.75
2022-11-30T14:37:26.650Z,1.50
2022-11-30T14:42:32.762Z,1.85
2022-11-30T14:47:36.484Z,1.75
2022-11-30T14:52:57.806Z,2.28
2022-11-30T14:58:14.924Z,1.80
2022-11-30T15:03:40.644Z,1.85
2022-11-30T15:08:51.888Z,1.45
2022-11-30T15:14:09.097Z,1.83
2022-11-30T15:19:33.077Z,1.70
2022-11-30T15:24:38.264Z,1.70
2022-11-30T15:29:46.860Z,1.77
2022-11-30T15:34:56.818Z,2.00
2022-11-30T15:40:02.634Z,1.75
2022-11-30T15:45:19.256Z,2.00
2022-11-30T15:50:29.345Z,1.88
2022-11-30T15:55:49.367Z,1.80
2022-11-30T16:01:06.625Z,2.63
2022-11-30T16:06:19.487Z,2.00
2022-11-30T16:11:22.979Z,1.92
2022-11-30T16:16:30.862Z,1.88
2022-11-30T16:21:36.713Z,2.00
2022-11-30T16:26:51.043Z,1.60
2022-11-30T16:31:55.454Z,2.20
2022-11-30T16:36:59.128Z,2.20
2022-11-30T16:42:02.601Z,2.28
2022-11-30T16:47:07.758Z,1.58
2022-11-30T16:52:17.319Z,2.47
2022-11-30T16:57:20.919Z,1.92
2022-11-30T17:02:24.666Z,1.92
2022-11-30T17:07:28.479Z,1.67
2022-11-30T17:12:32.307Z,2.00
2022-11-30T17:17:35.747Z,2.58
2022-11-30T17:22:39.312Z,1.90
2022-11-30T17:27:43.234Z,2.13
2022-11-30T17:32:47.391Z,2.10
2022-11-30T17:37:53.704Z,1.52
2022-11-30T17:42:58.216Z,2.20
2022-11-30T17:48:01.906Z,1.90
2022-11-30T17:53:05.367Z,2.40
2022-11-30T17:58:08.763Z,2.97
2022-11-30T18:03:11.998Z,3.13
2022-11-30T18:08:17.249Z,4.63
2022-11-30T18:13:20.714Z,2.67
2022-11-30T18:18:24.032Z,1.80
2022-11-30T18:28:32.423Z,2.53
2022-11-30T18:33:37.233Z,2.67
2022-11-30T18:38:40.795Z,2.20
2022-11-30T18:43:46.940Z,3.08
2022-11-30T18:48:53.015Z,2.22
2022-11-30T18:53:59.879Z,2.15
2022-11-30T18:59:10.767Z,2.53
2022-11-30T19:04:14.499Z,2.92
2022-11-30T19:09:19.927Z,3.10
2022-11-30T19:14:24.495Z,3.30
2022-11-30T19:19:29.293Z,3.30
2022-11-30T19:24:32.989Z,4.00
2022-11-30T19:29:36.550Z,4.03
2022-11-30T19:34:41.473Z,3.45
2022-11-30T19:39:46.476Z,3.47
2022-11-30T19:44:51.369Z,3.45
2022-11-30T19:49:55.817Z,3.13
2022-11-30T19:55:00.298Z,3.50
2022-11-30T20:00:06.291Z,3.88
2022-11-30T20:05:20.267Z,3.20
2022-11-30T20:10:27.714Z,4.10
2022-11-30T20:15:34.177Z,3.35
2022-11-30T20:20:38.912Z,3.45
2022-11-30T20:25:42.382Z,3.33
2022-11-30T20:30:47.636Z,3.00
2022-11-30T20:35:52.254Z,3.20
2022-11-30T20:40:56.784Z,3.85
2022-11-30T20:46:00.277Z,2.85
2022-11-30T20:51:30.254Z,3.17
2022-11-30T20:56:36.439Z,2.92
2022-11-30T21:01:42.822Z,2.58
2022-11-30T21:06:46.697Z,3.55
2022-11-30T21:11:50.472Z,2.72
2022-11-30T21:16:53.813Z,2.22
2022-11-30T21:21:57.325Z,2.83
2022-11-30T21:27:00.969Z,3.30
2022-11-30T21:32:05.156Z,3.00
2022-11-30T21:37:08.571Z,2.35
2022-11-30T21:42:12.110Z,2.60
2022-11-30T21:47:15.631Z,2.30
2022-11-30T21:52:19.904Z,2.85
2022-11-30T21:57:23.601Z,3.35
2022-11-30T22:02:26.943Z,3.05
2022-11-30T22:07:30.293Z,3.47
2022-11-30T22:12:33.702Z,3.08
2022-11-30T22:17:37.239Z,3.35
2022-11-30T22:22:40.823Z,2.88
2022-11-30T22:27:44.358Z,3.53
2022-11-30T22:32:47.645Z,3.00
2022-11-30T22:37:51.028Z,3.30
2022-11-30T22:42:54.762Z,2.40
2022-11-30T22:47:58.178Z,2.95
2022-11-30T22:53:03.284Z,2.67
2022-11-30T22:58:07.581Z,2.45
2022-11-30T23:03:14.499Z,2.70
2022-11-30T23:08:21.397Z,2.80
2022-11-30T23:13:25.911Z,3.47
2022-11-30T23:18:30.689Z,3.45
2022-11-30T23:23:34.277Z,2.53
2022-11-30T23:28:37.828Z,2.50
2022-11-30T23:33:42.075Z,2.15
2022-11-30T23:38:46.892Z,2.53
2022-11-30T23:43:50.352Z,2.45
2022-11-30T23:48:53.725Z,2.75
2022-11-30T23:53:57.012Z,3.20
2022-11-30T23:59:00.334Z,3.45
